Time;durP1;ratioP1;P1;durP2;ratioP2;P2;SDS_P1;SDS_P2;PMS_P1;PMS_P2;Temp;Humidity;BMP_temperature;BMP_pressure;BME280_temperature;BME280_humidity;BME280_pressure;Samples;Min_cycle;Max_cycle;Signal;HPM_P1;HPM_P2
2022/04/16 00:00:15;;;;;;;17.63;12.93;;;;;;;;;;4991220;28;20242;-43
2022/04/16 00:02:41;;;;;;;19.50;13.38;;;7.40;99.90;;;;;;4992083;28;20720;-43
2022/04/16 00:05:07;;;;;;;19.42;13.48;;;7.30;99.90;;;;;;4992499;28;20065;-46
2022/04/16 00:07:35;;;;;;;22.35;14.00;;;7.30;99.90;;;;;;4991664;28;20038;-42
2022/04/16 00:10:01;;;;;;;21.88;13.60;;;;;;;;;;4991828;28;20041;-44
2022/04/16 00:12:27;;;;;;;19.30;14.82;;;;;;;;;;4992994;28;20473;-46
2022/04/16 00:14:55;;;;;;;20.40;14.65;;;7.40;99.90;;;;;;4993242;28;20073;-42
2022/04/16 00:17:21;;;;;;;24.70;15.77;;;;;;;;;;4992765;28;20503;-45
2022/04/16 00:19:48;;;;;;;23.20;15.90;;;;;;;;;;4993540;28;20046;-46
2022/04/16 00:22:15;;;;;;;23.98;16.88;;;7.30;99.90;;;;;;4992830;28;20071;-43
2022/04/16 00:24:41;;;;;;;24.13;17.13;;;7.20;99.90;;;;;;4991135;28;20687;-45
2022/04/16 00:27:09;;;;;;;24.92;16.17;;;7.50;99.90;;;;;;4992270;28;20498;-46
2022/04/16 00:29:36;;;;;;;24.67;17.17;;;;;;;;;;4991679;28;20054;-43
2022/04/16 00:32:02;;;;;;;22.77;17.30;;;;;;;;;;4991374;28;20045;-46
2022/04/16 00:34:28;;;;;;;26.17;17.75;;;;;;;;;;4992450;28;20040;-44
2022/04/16 00:36:54;;;;;;;23.90;17.35;;;;;;;;;;4992232;28;20053;-46
2022/04/16 00:39:21;;;;;;;23.42;17.73;;;;;;;;;;4990827;28;20107;-47
2022/04/16 00:41:47;;;;;;;25.70;19.08;;;;;;;;;;4991601;28;20042;-44
2022/04/16 00:44:14;;;;;;;26.50;17.98;;;6.90;99.90;;;;;;4991632;28;20606;-44
2022/04/16 00:46:43;;;;;;;29.33;19.55;;;7.10;99.90;;;;;;4991836;28;20038;-46
2022/04/16 00:49:09;;;;;;;25.10;17.98;;;;;;;;;;4991513;28;20042;-45
2022/04/16 00:51:36;;;;;;;26.85;17.55;;;;;;;;;;4993601;28;20100;-45
2022/04/16 00:54:02;;;;;;;27.15;19.27;;;;;;;;;;4991679;28;20120;-47
2022/04/16 00:56:28;;;;;;;33.47;19.42;;;;;;;;;;4991580;28;20037;-45
2022/04/16 00:58:54;;;;;;;25.63;18.65;;;;;;;;;;4990962;28;20164;-42
2022/04/16 01:01:23;;;;;;;24.25;19.20;;;6.60;99.90;;;;;;4991871;28;20042;-45
2022/04/16 01:03:48;;;;;;;29.23;19.95;;;6.60;99.90;;;;;;4991895;28;20069;-44
2022/04/16 01:06:16;;;;;;;30.17;20.63;;;6.60;99.90;;;;;;4990818;28;20140;-47
2022/04/16 01:08:46;;;;;;;29.27;20.52;;;6.60;99.90;;;;;;4991016;28;20038;-46
2022/04/16 01:11:12;;;;;;;28.50;21.08;;;;;;;;;;4992021;28;20077;-46
2022/04/16 01:13:38;;;;;;;28.42;19.92;;;6.40;99.90;;;;;;4992233;28;20157;-46
2022/04/16 01:16:06;;;;;;;26.98;20.60;;;6.20;99.90;;;;;;4991393;28;20132;-48
2022/04/16 01:18:32;;;;;;;30.50;20.38;;;;;;;;;;4991413;28;20066;-47
2022/04/16 01:21:01;;;;;;;28.17;20.63;;;;;;;;;;4992068;28;20046;-46
2022/04/16 01:23:28;;;;;;;34.03;21.88;;;;;;;;;;4993303;28;20544;-46
2022/04/16 01:25:55;;;;;;;30.15;20.58;;;;;;;;;;4996894;28;20461;-47
2022/04/16 01:28:22;;;;;;;30.20;21.05;;;;;;;;;;4995000;28;20125;-44
2022/04/16 01:30:48;;;;;;;32.67;21.45;;;;;;;;;;4994413;28;20205;-46
2022/04/16 01:33:17;;;;;;;33.60;21.80;;;6.00;99.90;;;;;;4995673;28;20046;-47
2022/04/16 01:35:44;;;;;;;29.38;21.45;;;;;;;;;;4996217;28;20054;-47
2022/04/16 01:38:10;;;;;;;32.92;22.48;;;;;;;;;;4995331;28;20049;-47
2022/04/16 01:40:36;;;;;;;31.50;21.98;;;;;;;;;;4995275;28;20140;-46
2022/04/16 01:43:03;;;;;;;32.78;22.80;;;5.90;99.90;;;;;;4996266;28;20060;-46
2022/04/16 01:45:31;;;;;;;33.42;21.20;;;;;;;;;;4995031;28;20691;-43
2022/04/16 01:47:59;;;;;;;32.78;21.75;;;;;;;;;;4994399;28;20050;-42
2022/04/16 01:50:25;;;;;;;30.02;21.70;;;;;;;;;;4995329;28;20616;-45
2022/04/16 01:52:52;;;;;;;36.65;21.98;;;;;;;;;;4996110;28;20057;-41
2022/04/16 01:55:18;;;;;;;31.65;22.45;;;;;;;;;;4993771;28;20373;-44
2022/04/16 01:57:44;;;;;;;33.95;20.85;;;;;;;;;;4994425;28;20665;-44
2022/04/16 02:00:14;;;;;;;29.55;21.63;;;5.70;99.90;;;;;;4994951;28;20080;-45
2022/04/16 02:02:41;;;;;;;28.50;20.55;;;;;;;;;;4994371;28;20089;-43
2022/04/16 02:05:08;;;;;;;25.92;19.70;;;5.30;99.90;;;;;;4993636;28;20179;-45
2022/04/16 02:07:34;;;;;;;27.38;18.45;;;;;;;;;;4976298;28;20060;-44
2022/04/16 02:10:01;;;;;;;24.77;18.30;;;;;;;;;;4995096;28;20077;-41
2022/04/16 02:12:27;;;;;;;29.05;20.35;;;;;;;;;;4994540;28;20125;-42
2022/04/16 02:14:55;;;;;;;26.42;17.83;;;5.10;99.90;;;;;;4994703;28;20049;-44
2022/04/16 02:17:21;;;;;;;24.05;18.42;;;;;;;;;;4994624;28;20042;-42
2022/04/16 02:19:48;;;;;;;27.52;19.50;;;;;;;;;;4995975;28;20056;-42
2022/04/16 02:22:15;;;;;;;24.02;18.70;;;4.90;99.90;;;;;;4994485;28;20522;-42
2022/04/16 02:24:41;;;;;;;25.52;17.67;;;;;;;;;;4994201;28;20057;-43
2022/04/16 02:27:07;;;;;;;29.40;19.63;;;;;;;;;;4993772;28;20042;-43
2022/04/16 02:29:34;;;;;;;23.02;17.48;;;4.70;99.90;;;;;;4994647;28;20038;-42
2022/04/16 02:32:02;;;;;;;22.15;17.38;;;;;;;;;;4992026;28;20034;-42
2022/04/16 02:34:28;;;;;;;20.67;15.40;;;;;;;;;;4993003;28;20049;-42
2022/04/16 02:36:58;;;;;;;23.02;15.70;;;4.50;99.90;;;;;;4992261;28;20569;-43
2022/04/16 02:39:25;;;;;;;21.90;15.45;;;4.50;99.90;;;;;;4994640;28;20049;-43
2022/04/16 02:41:51;;;;;;;19.13;13.98;;;;;;;;;;4994484;28;20589;-41
2022/04/16 02:47:06;;;;;;;19.63;13.82;;;;;;;;;;4994124;28;20052;-42
2022/04/16 02:49:33;;;;;;;20.73;14.38;;;4.20;99.90;;;;;;4994101;28;20593;-43
2022/04/16 02:51:59;;;;;;;22.65;15.90;;;;;;;;;;4994786;28;20041;-42
2022/04/16 02:54:26;;;;;;;18.13;13.82;;;;;;;;;;4993319;28;20049;-43
2022/04/16 02:56:52;;;;;;;22.75;15.18;;;;;;;;;;4994359;28;20096;-42
2022/04/16 02:59:18;;;;;;;20.65;15.77;;;;;;;;;;4994439;28;20042;-45
2022/04/16 03:01:47;;;;;;;24.30;17.02;;;4.30;99.90;;;;;;4993574;28;20037;-41
2022/04/16 03:04:13;;;;;;;23.85;14.52;;;;;;;;;;4993555;28;20040;-40
2022/04/16 03:06:39;;;;;;;19.13;13.38;;;;;;;;;;4992847;28;20037;-39
2022/04/16 03:09:06;;;;;;;20.05;13.77;;;4.30;99.90;;;;;;4994153;28;20037;-40
2022/04/16 03:11:32;;;;;;;23.50;16.05;;;;;;;;;;4992958;28;20056;-40
2022/04/16 03:17:31;;;;;;;17.70;11.73;;;;;;;;;;4992709;28;20136;-40
2022/04/16 03:19:28;;;;;;;19.42;15.13;;;;;;;;;;4994091;28;20080;-40
2022/04/16 03:21:56;;;;;;;22.88;16.20;;;4.50;99.90;;;;;;4994538;28;20069;-38
2022/04/16 03:24:22;;;;;;;24.42;17.17;;;;;;;;;;4993093;28;20054;-39
2022/04/16 03:26:48;;;;;;;21.48;15.68;;;;;;;;;;4993250;28;20085;-37
2022/04/16 03:29:15;;;;;;;28.23;20.25;;;;;;;;;;4991423;28;20133;-38
2022/04/16 03:31:41;;;;;;;41.50;24.85;;;;;;;;;;4991876;28;20042;-38
2022/04/16 03:34:07;;;;;;;41.63;27.20;;;;;;;;;;4992369;28;20060;-38
2022/04/16 03:36:34;;;;;;;45.80;27.15;;;5.10;99.90;;;;;;4992944;28;20069;-37
2022/04/16 03:39:00;;;;;;;48.25;29.35;;;;;;;;;;4992008;28;20569;-38
2022/04/16 03:41:27;;;;;;;49.90;29.50;;;5.40;99.90;;;;;;4990919;28;20042;-38
2022/04/16 03:43:53;;;;;;;43.63;28.77;;;;;;;;;;4991453;28;20141;-38
2022/04/16 03:46:19;;;;;;;51.38;31.73;;;;;;;;;;4992639;28;20066;-38
2022/04/16 03:48:46;;;;;;;52.17;32.13;;;;;;;;;;4992228;28;20030;-38
2022/04/16 03:51:12;;;;;;;51.45;29.63;;;;;;;;;;4993282;28;20048;-38
2022/04/16 03:53:38;;;;;;;49.63;31.25;;;;;;;;;;4992419;28;20053;-38
2022/04/16 04:01:36;;;;;;;47.85;29.08;;;;;;;;;;4991700;28;20048;-38
2022/04/16 04:04:02;;;;;;;45.25;29.15;;;;;;;;;;4992856;28;21226;-37
2022/04/16 04:06:28;;;;;;;44.80;29.55;;;;;;;;;;4992668;28;20111;-38
2022/04/16 04:08:54;;;;;;;46.70;28.77;;;;;;;;;;4992762;28;20042;-38
2022/04/16 04:11:20;;;;;;;41.58;28.85;;;6.50;99.90;;;;;;4991451;28;20134;-38
2022/04/16 04:13:46;;;;;;;44.80;29.25;;;;;;;;;;4974931;28;20718;-38
2022/04/16 04:16:12;;;;;;;46.28;30.02;;;;;;;;;;4993249;28;20454;-40
2022/04/16 04:18:38;;;;;;;43.20;29.08;;;;;;;;;;4992067;28;20042;-39
2022/04/16 04:21:04;;;;;;;36.25;28.88;;;;;;;;;;4995025;28;20061;-38
2022/04/16 04:23:31;;;;;;;37.83;28.23;;;6.70;99.90;;;;;;4972523;28;20073;-39
2022/04/16 04:25:58;;;;;;;42.80;29.38;;;;;;;;;;4992403;28;20073;-39
2022/04/16 04:28:24;;;;;;;36.70;28.20;;;;;;;;;;4975731;28;20495;-39
2022/04/16 04:30:50;;;;;;;39.60;29.02;;;;;;;;;;4993311;28;20053;-39
2022/04/16 04:33:16;;;;;;;41.20;28.95;;;;;;;;;;4993153;28;20042;-39
2022/04/16 04:35:42;;;;;;;38.42;29.95;;;;;;;;;;4991475;28;20057;-40
2022/04/16 04:38:08;;;;;;;41.88;30.95;;;;;;;;;;4992129;28;20109;-40
2022/04/16 04:40:34;;;;;;;43.03;31.00;;;;;;;;;;4993772;28;20502;-39
2022/04/16 04:43:00;;;;;;;45.28;30.45;;;;;;;;;;4992082;28;20527;-42
2022/04/16 04:45:26;;;;;;;47.05;33.13;;;7.20;99.90;;;;;;4992560;28;20052;-39
2022/04/16 04:47:53;;;;;;;45.50;32.72;;;7.00;99.90;;;;;;4992031;28;20034;-40
2022/04/16 04:50:19;;;;;;;42.10;31.63;;;;;;;;;;4991961;28;20041;-39
2022/04/16 04:52:46;;;;;;;45.25;32.85;;;;;;;;;;4993270;28;20042;-40
2022/04/16 04:55:13;;;;;;;45.88;33.67;;;7.20;99.90;;;;;;4991997;28;20143;-40
2022/04/16 04:57:40;;;;;;;44.63;33.10;;;7.10;99.90;;;;;;4994720;28;21653;-40
2022/04/16 05:00:07;;;;;;;45.45;33.08;;;7.10;99.90;;;;;;4997201;28;20041;-39
2022/04/16 05:02:45;;;;;;;47.00;33.75;;;7.20;99.90;;;;;;4996077;28;20069;-39
2022/04/16 05:05:14;;;;;;;47.13;33.80;;;7.90;99.90;;;;;;4977647;28;20132;-39
2022/04/16 05:07:40;;;;;;;47.25;34.40;;;;;;;;;;4996345;28;20052;-41
2022/04/16 05:10:06;;;;;;;45.35;32.63;;;7.20;99.90;;;;;;4994450;28;20638;-38
2022/04/16 05:12:33;;;;;;;46.60;34.63;;;;;;;;;;4994065;28;20069;-38
2022/04/16 05:14:59;;;;;;;43.45;32.42;;;;;;;;;;4994413;28;20078;-38
2022/04/16 05:17:25;;;;;;;47.05;34.42;;;7.20;99.90;;;;;;4978511;28;20035;-38
2022/04/16 05:19:51;;;;;;;46.95;34.30;;;;;;;;;;4992371;28;20038;-38
2022/04/16 05:22:18;;;;;;;49.08;34.88;;;;;;;;;;4996285;28;20373;-38
2022/04/16 05:24:45;;;;;;;42.80;31.55;;;7.20;99.90;;;;;;4995121;28;20403;-38
2022/04/16 05:27:15;;;;;;;42.78;31.70;;;7.30;99.90;;;;;;4995948;28;20060;-40
2022/04/16 05:30:04;;;;;;;41.95;31.83;;;;;;;;;;4995686;28;20038;-38
2022/04/16 05:32:35;;;;;;;38.42;29.23;;;7.20;99.90;;;;;;4994298;28;20046;-38
2022/04/16 05:35:01;;;;;;;42.22;30.70;;;;;;;;;;4994302;28;20038;-38
2022/04/16 05:37:27;;;;;;;40.53;32.30;;;;;;;;;;4994588;28;20096;-38
2022/04/16 05:39:53;;;;;;;40.47;31.13;;;;;;;;;;4995978;28;20722;-38
2022/04/16 05:42:19;;;;;;;42.63;32.22;;;;;;;;;;4994341;28;20561;-38
2022/04/16 05:44:45;;;;;;;44.78;32.17;;;;;;;;;;4993769;28;20069;-39
2022/04/16 05:47:12;;;;;;;44.97;32.92;;;;;;;;;;4995868;28;20286;-38
2022/04/16 05:49:38;;;;;;;43.35;31.77;;;;;;;;;;4993940;28;20120;-38
2022/04/16 05:52:04;;;;;;;40.35;31.80;;;;;;;;;;4995170;28;20060;-38
2022/04/16 05:54:32;;;;;;;42.25;31.48;;;7.50;99.90;;;;;;4995019;28;20073;-38
2022/04/16 05:56:58;;;;;;;42.67;30.20;;;;;;;;;;4995465;28;20050;-38
2022/04/16 05:59:24;;;;;;;41.50;31.35;;;;;;;;;;4994352;28;20034;-38
2022/04/16 06:01:49;;;;;;;37.63;27.45;;;7.50;99.90;;;;;;4993480;28;20052;-38
2022/04/16 06:04:15;;;;;;;39.35;27.77;;;7.60;99.90;;;;;;4993040;28;20041;-38
2022/04/16 06:06:41;;;;;;;36.10;27.33;;;;;;;;;;4993858;28;20334;-38
2022/04/16 06:09:07;;;;;;;34.92;25.38;;;;;;;;;;4992327;28;20042;-38
2022/04/16 06:11:33;;;;;;;31.67;23.27;;;;;;;;;;4994364;28;20124;-38
2022/04/16 06:13:59;;;;;;;31.88;24.38;;;7.70;99.90;;;;;;4994341;28;20042;-38
2022/04/16 06:16:26;;;;;;;31.80;24.10;;;;;;;;;;4994040;28;20244;-38
2022/04/16 06:18:52;;;;;;;34.25;24.35;;;;;;;;;;4994331;28;20683;-38
2022/04/16 06:21:18;;;;;;;32.10;23.38;;;;;;;;;;4993970;28;20056;-38
2022/04/16 06:23:44;;;;;;;33.55;25.10;;;;;;;;;;4993302;28;20057;-38
2022/04/16 06:26:09;;;;;;;34.30;25.80;;;7.50;99.90;;;;;;4993931;28;20041;-38
2022/04/16 06:28:36;;;;;;;32.17;24.52;;;;;;;;;;4994139;28;20345;-38
2022/04/16 06:31:02;;;;;;;29.98;22.98;;;7.70;99.90;;;;;;4993462;28;20046;-39
2022/04/16 06:33:28;;;;;;;26.00;20.30;;;;;;;;;;4975077;28;20129;-38
2022/04/16 06:35:53;;;;;;;22.08;15.95;;;7.80;99.90;;;;;;4977392;28;20033;-38
2022/04/16 06:38:19;;;;;;;21.90;15.30;;;;;;;;;;4992863;28;20045;-38
2022/04/16 06:40:45;;;;;;;21.83;14.00;;;;;;;;;;4992894;28;20041;-38
2022/04/16 06:43:13;;;;;;;21.80;14.25;;;7.70;99.90;;;;;;4993718;28;20095;-38
2022/04/16 06:45:39;;;;;;;19.55;14.32;;;7.90;99.90;;;;;;4994184;28;20514;-38
2022/04/16 06:48:05;;;;;;;19.67;14.25;;;8.00;99.90;;;;;;4992221;28;20132;-38
2022/04/16 06:50:31;;;;;;;20.95;15.30;;;8.10;99.90;;;;;;4992496;28;20437;-38
2022/04/16 06:52:57;;;;;;;21.40;14.68;;;;;;;;;;4995204;28;20073;-38
2022/04/16 06:55:23;;;;;;;21.73;14.77;;;8.80;99.90;;;;;;4993188;28;20212;-39
2022/04/16 06:57:48;;;;;;;19.23;13.10;;;8.80;99.90;;;;;;4992262;28;20549;-38
2022/04/16 07:00:14;;;;;;;17.52;12.05;;;10.20;99.90;;;;;;4993725;28;20405;-39
2022/04/16 07:02:41;;;;;;;16.25;11.50;;;12.00;99.90;;;;;;4993278;28;20037;-39
2022/04/16 07:05:09;;;;;;;15.70;11.35;;;13.00;99.90;;;;;;4992805;28;20048;-40
2022/04/16 07:07:34;;;;;;;17.02;11.23;;;14.10;99.90;;;;;;4993227;28;20034;-39
2022/04/16 07:10:00;;;;;;;14.95;10.98;;;15.30;99.90;;;;;;4992762;28;20044;-39
2022/04/16 07:12:29;;;;;;;16.45;11.55;;;16.80;99.90;;;;;;4994303;28;20046;-40
2022/04/16 07:14:55;;;;;;;13.70;9.65;;;16.40;99.90;;;;;;4991861;28;20038;-40
2022/04/16 07:17:20;;;;;;;16.00;10.40;;;18.80;99.90;;;;;;4992120;28;21368;-40
2022/04/16 07:19:46;;;;;;;14.27;9.68;;;19.40;99.90;;;;;;4992271;28;20053;-39
2022/04/16 07:22:12;;;;;;;15.10;10.35;;;19.50;99.90;;;;;;4994022;28;20041;-40
2022/04/16 07:24:37;;;;;;;11.40;9.25;;;18.10;99.90;;;;;;4992240;28;20077;-42
2022/04/16 07:27:06;;;;;;;14.82;10.25;;;17.60;99.90;;;;;;4993213;28;20058;-40
2022/04/16 07:29:32;;;;;;;13.65;9.68;;;17.20;99.90;;;;;;4991394;28;20049;-40
2022/04/16 07:31:57;;;;;;;12.88;9.52;;;17.30;99.90;;;;;;4992458;28;20091;-40
2022/04/16 07:34:25;;;;;;;11.85;8.25;;;16.10;99.90;;;;;;4993019;28;20045;-41
2022/04/16 07:36:51;;;;;;;10.05;7.35;;;16.50;99.90;;;;;;4993163;28;20045;-42
2022/04/16 07:39:18;;;;;;;12.30;7.68;;;15.10;99.90;;;;;;4992249;28;20033;-40
2022/04/16 07:41:44;;;;;;;10.90;6.68;;;16.10;99.90;;;;;;4992773;28;20077;-41
2022/04/16 07:44:10;;;;;;;11.20;6.85;;;14.70;99.90;;;;;;4993004;28;20038;-42
2022/04/16 07:46:36;;;;;;;12.13;7.68;;;14.50;99.90;;;;;;4992391;28;20870;-40
2022/04/16 07:49:03;;;;;;;10.68;7.68;;;14.40;99.90;;;;;;4991741;28;20558;-40
2022/04/16 07:51:29;;;;;;;11.82;7.13;;;14.30;99.90;;;;;;4993415;28;20053;-41
2022/04/16 07:53:58;;;;;;;11.75;6.57;;;14.00;99.90;;;;;;4993481;28;20037;-41
2022/04/16 07:56:23;;;;;;;11.50;7.20;;;14.40;99.90;;;;;;4992135;28;20042;-43
2022/04/16 07:58:50;;;;;;;11.23;7.20;;;15.50;99.90;;;;;;4991507;28;20056;-41
2022/04/16 08:01:17;;;;;;;10.65;7.50;;;14.80;99.90;;;;;;4992740;28;21669;-42
2022/04/16 08:03:43;;;;;;;10.95;7.53;;;15.70;99.90;;;;;;4992389;28;20046;-41
2022/04/16 08:06:08;;;;;;;10.85;7.78;;;14.80;99.90;;;;;;4992555;28;20038;-43
2022/04/16 08:08:34;;;;;;;11.65;8.07;;;15.20;99.90;;;;;;4992684;28;20132;-41
2022/04/16 08:11:00;;;;;;;10.75;7.95;;;14.60;99.90;;;;;;4991231;28;20157;-41
2022/04/16 08:13:25;;;;;;;10.85;7.18;;;14.40;99.90;;;;;;4991932;28;20210;-40
2022/04/16 08:15:51;;;;;;;8.50;5.00;;;14.40;99.90;;;;;;4991878;28;20073;-42
2022/04/16 08:18:19;;;;;;;7.55;4.55;;;14.80;99.90;;;;;;4992234;28;20303;-41
2022/04/16 08:20:45;;;;;;;7.25;4.40;;;14.10;99.90;;;;;;4991634;28;20034;-40
2022/04/16 08:23:11;;;;;;;8.80;5.45;;;14.10;99.90;;;;;;4992875;28;20053;-46
2022/04/16 08:28:08;;;;;;;8.60;5.55;;;14.30;99.90;;;;;;4991791;28;20506;-44
2022/04/16 08:30:33;;;;;;;11.93;7.63;;;14.20;99.90;;;;;;4989886;28;20132;-43
2022/04/16 08:32:59;;;;;;;13.13;7.38;;;15.90;99.90;;;;;;4991820;28;20052;-44
2022/04/16 08:35:25;;;;;;;10.70;6.68;;;15.10;99.90;;;;;;4993189;28;20128;-45
2022/04/16 08:37:51;;;;;;;8.80;6.43;;;14.60;99.90;;;;;;4990949;28;20088;-45
2022/04/16 08:40:18;;;;;;;10.95;6.80;;;16.00;99.90;;;;;;4973831;28;20147;-43
2022/04/16 08:42:48;;;;;;;13.25;6.40;;;15.90;99.90;;;;;;4991960;28;20130;-40
2022/04/16 08:45:14;;;;;;;10.63;5.80;;;14.00;99.90;;;;;;4991333;28;20045;-46
2022/04/16 08:47:41;;;;;;;10.80;6.00;;;14.00;99.90;;;;;;4991116;28;20132;-43
2022/04/16 08:50:10;;;;;;;9.82;6.00;;;14.10;99.90;;;;;;4991053;28;20120;-41
2022/04/16 08:52:37;;;;;;;10.02;6.25;;;14.10;99.90;;;;;;4992631;28;20502;-43
2022/04/16 08:55:06;;;;;;;12.45;5.82;;;14.70;99.90;;;;;;4992222;28;20096;-45
2022/04/16 08:57:35;;;;;;;8.55;4.90;;;13.90;99.90;;;;;;4991999;28;20045;-42
2022/04/16 09:00:01;;;;;;;7.20;4.60;;;15.30;99.90;;;;;;4991491;28;20576;-42
2022/04/16 09:02:27;;;;;;;9.27;4.82;;;15.30;99.90;;;;;;4971831;28;20148;-46
2022/04/16 09:05:09;;;;;;;9.02;4.93;;;14.50;99.90;;;;;;4989757;28;20042;-46
2022/04/16 09:07:55;;;;;;;8.88;4.60;;;14.40;99.90;;;;;;4990518;28;20265;-46
2022/04/16 09:10:24;;;;;;;9.48;4.40;;;14.00;99.90;;;;;;4990260;28;20123;-46
2022/04/16 09:12:52;;;;;;;8.57;4.00;;;14.20;99.90;;;;;;4990789;28;20064;-43
2022/04/16 09:15:21;;;;;;;6.40;3.78;;;14.40;99.90;;;;;;4993004;28;20157;-44
2022/04/16 09:18:07;;;;;;;8.65;3.50;;;14.50;99.90;;;;;;4992506;28;20108;-42
2022/04/16 09:20:37;;;;;;;6.47;3.60;;;14.90;99.90;;;;;;4989816;28;20044;-45
2022/04/16 09:23:18;;;;;;;5.90;2.92;;;15.30;99.90;;;;;;4991331;28;20050;-45
2022/04/16 09:25:44;;;;;;;6.67;3.27;;;15.40;99.90;;;;;;4991088;28;20640;-44
2022/04/16 09:28:13;;;;;;;5.80;3.13;;;15.70;99.90;;;;;;4992282;28;20045;-41
2022/04/16 09:30:51;;;;;;;5.35;3.05;;;16.10;99.90;;;;;;4990140;28;20049;-43
2022/04/16 09:33:17;;;;;;;5.28;2.70;;;16.60;99.90;;;;;;4990489;28;20522;-41
2022/04/16 09:35:46;;;;;;;5.97;2.85;;;16.20;97.70;;;;;;4988818;28;20070;-41
2022/04/16 09:38:12;;;;;;;5.80;2.72;;;15.80;99.40;;;;;;4989359;28;20921;-43
2022/04/16 09:40:38;;;;;;;5.60;2.38;;;14.90;99.50;;;;;;4989278;28;20086;-42
2022/04/16 09:43:09;;;;;;;5.00;2.67;;;14.30;99.20;;;;;;4988468;28;20445;-43
2022/04/16 09:45:38;;;;;;;5.55;2.47;;;13.90;99.90;;;;;;4991406;28;20057;-43
2022/04/16 09:48:09;;;;;;;6.18;2.72;;;15.10;99.90;;;;;;4992626;28;20099;-43
2022/04/16 09:50:37;;;;;;;5.20;2.67;;;14.30;99.90;;;;;;4992915;28;20041;-42
2022/04/16 09:53:05;;;;;;;6.05;3.05;;;13.90;99.90;;;;;;4991961;28;20856;-43
2022/04/16 09:55:31;;;;;;;4.85;2.60;;;14.00;99.90;;;;;;4991144;28;20141;-45
2022/04/16 09:57:59;;;;;;;5.05;2.67;;;13.80;99.90;;;;;;4992156;28;20048;-42
2022/04/16 10:00:26;;;;;;;7.82;2.88;;;13.90;99.90;;;;;;4994665;28;20128;-44
2022/04/16 10:02:55;;;;;;;7.85;2.33;;;13.80;99.90;;;;;;4993041;28;20644;-44
2022/04/16 10:05:22;;;;;;;5.72;2.67;;;13.80;99.90;;;;;;4992839;28;20187;-42
2022/04/16 10:07:48;;;;;;;4.65;2.08;;;13.50;99.90;;;;;;4993810;28;20038;-42
2022/04/16 10:13:13;;;;;;;4.65;2.20;;;13.70;99.90;;;;;;4933751;28;20043;-43
2022/04/16 10:16:19;;;;;;;4.75;2.17;;;14.40;99.90;;;;;;4934628;28;20122;-45
2022/04/16 10:18:45;;;;;;;4.22;1.95;;;13.80;99.90;;;;;;4858772;29;20469;-44
2022/04/16 10:21:17;;;;;;;5.47;2.40;;;15.20;99.90;;;;;;4858094;29;20057;-45
2022/04/16 10:23:43;;;;;;;3.90;1.90;;;14.20;99.90;;;;;;4858769;29;20065;-43
2022/04/16 10:26:11;;;;;;;4.97;2.13;;;14.40;99.90;;;;;;4856628;29;21290;-42
2022/04/16 10:28:44;;;;;;;3.83;1.73;;;14.60;99.90;;;;;;4857304;29;20127;-43
2022/04/16 10:31:47;;;;;;;3.78;1.60;;;14.60;99.90;;;;;;4857328;29;20534;-44
2022/04/16 10:34:13;;;;;;;3.55;1.60;;;14.60;99.70;;;;;;4858311;29;20057;-43
2022/04/16 10:36:51;;;;;;;3.55;1.50;;;14.50;98.40;;;;;;4856193;29;20052;-44
2022/04/16 10:39:19;;;;;;;4.15;1.90;;;14.70;99.20;;;;;;4858443;29;20347;-41
2022/04/16 10:41:55;;;;;;;3.13;1.45;;;17.10;98.50;;;;;;4857730;29;20060;-42
2022/04/16 10:44:21;;;;;;;4.28;1.55;;;14.40;96.80;;;;;;4857282;29;20052;-44
2022/04/16 10:46:52;;;;;;;3.63;1.30;;;14.50;97.10;;;;;;4857603;29;20136;-43
2022/04/16 10:49:19;;;;;;;4.10;1.27;;;14.70;94.90;;;;;;4858583;29;20084;-41
2022/04/16 10:51:46;;;;;;;4.30;1.48;;;15.50;96.70;;;;;;4857871;29;20522;-41
2022/04/16 10:54:32;;;;;;;4.00;1.52;;;14.70;96.50;;;;;;4861123;28;20053;-42
2022/04/16 10:56:58;;;;;;;2.67;1.30;;;15.50;96.40;;;;;;4970914;28;20054;-44
2022/04/16 10:59:37;;;;;;;3.30;1.58;;;14.40;95.90;;;;;;4971244;28;20081;-47
2022/04/16 11:02:14;;;;;;;3.47;1.40;;;15.30;96.50;;;;;;4968847;28;20082;-47
2022/04/16 11:04:40;;;;;;;3.65;1.42;;;14.60;96.30;;;;;;4969228;28;20104;-45
2022/04/16 11:07:10;;;;;;;3.60;1.40;;;14.50;96.00;;;;;;4970092;28;20042;-42
2022/04/16 11:09:37;;;;;;;2.88;1.42;;;15.00;97.20;;;;;;4972809;28;20039;-47
2022/04/16 11:12:07;;;;;;;2.85;1.40;;;14.70;94.70;;;;;;4992233;28;20041;-45
2022/04/16 11:14:35;;;;;;;2.95;1.20;;;14.90;96.10;;;;;;4974955;28;20049;-45
2022/04/16 11:17:03;;;;;;;1.58;0.80;;;15.00;94.40;;;;;;4993006;28;20049;-46
2022/04/16 11:19:29;;;;;;;2.35;0.88;;;14.80;92.20;;;;;;4974119;28;20058;-44
2022/04/16 11:21:55;;;;;;;3.67;0.90;;;15.80;92.70;;;;;;4992980;28;20125;-46
2022/04/16 11:24:20;;;;;;;1.92;0.80;;;14.80;91.40;;;;;;4992749;28;20517;-46
2022/04/16 11:35:00;;;;;;;2.67;0.80;;;14.70;90.40;;;;;;4991878;28;20723;-45
2022/04/16 11:37:26;;;;;;;1.67;0.80;;;14.30;90.80;;;;;;4993074;28;20038;-46
2022/04/16 11:40:09;;;;;;;3.65;0.90;;;14.60;89.20;;;;;;4992288;28;20084;-41
2022/04/16 11:42:35;;;;;;;1.35;0.70;;;14.70;90.70;;;;;;4993179;28;20054;-45
2022/04/16 11:45:04;;;;;;;2.42;0.70;;;14.70;90.70;;;;;;4992604;28;20641;-45
2022/04/16 11:47:35;;;;;;;2.05;0.80;;;15.70;90.90;;;;;;4991930;28;20103;-47
2022/04/16 11:50:01;;;;;;;2.80;0.95;;;15.10;90.80;;;;;;4991796;28;20143;-43
2022/04/16 11:52:29;;;;;;;4.30;0.90;;;15.30;91.80;;;;;;4993934;28;20061;-44
2022/04/16 11:55:03;;;;;;;2.10;0.68;;;15.30;90.50;;;;;;4992269;28;20544;-43
2022/04/16 11:57:29;;;;;;;4.03;0.80;;;15.70;88.60;;;;;;4992435;28;20065;-42
2022/04/16 11:59:59;;;;;;;2.13;0.68;;;15.40;90.10;;;;;;4992193;28;20598;-44
2022/04/16 12:02:37;;;;;;;0.88;0.50;;;15.30;85.40;;;;;;4991945;28;20511;-43
2022/04/16 12:05:12;;;;;;;1.25;0.60;;;16.20;86.50;;;;;;4992163;28;20042;-46
2022/04/16 12:07:50;;;;;;;1.63;0.55;;;15.20;83.20;;;;;;4993365;28;20407;-46
2022/04/16 12:10:16;;;;;;;2.22;0.60;;;15.60;83.60;;;;;;4992701;28;20038;-45
2022/04/16 12:12:47;;;;;;;1.63;0.70;;;15.90;84.80;;;;;;4991802;28;20494;-46
2022/04/16 12:15:22;;;;;;;2.20;0.75;;;15.10;85.70;;;;;;4992768;28;20042;-45
2022/04/16 12:17:49;;;;;;;2.15;0.85;;;15.10;85.90;;;;;;4992029;28;20042;-43
2022/04/16 12:20:15;;;;;;;1.35;0.70;;;15.30;87.20;;;;;;4991241;28;20568;-43
2022/04/16 12:22:57;;;;;;;2.70;0.70;;;16.40;88.10;;;;;;4992896;28;20128;-46
2022/04/16 12:25:24;;;;;;;1.45;0.70;;;15.10;85.90;;;;;;4992725;28;20092;-43
2022/04/16 12:27:58;;;;;;;1.75;0.80;;;15.10;86.00;;;;;;4991970;28;20077;-45
2022/04/16 12:30:27;;;;;;;1.35;0.60;;;15.20;86.70;;;;;;4991886;28;20033;-45
2022/04/16 12:32:57;;;;;;;1.98;0.68;;;15.30;88.40;;;;;;4992795;28;20041;-44
2022/04/16 12:35:24;;;;;;;2.10;0.73;;;15.30;87.30;;;;;;4992794;28;20134;-46
2022/04/16 12:37:54;;;;;;;1.98;0.77;;;15.40;86.20;;;;;;4992245;28;20046;-45
2022/04/16 12:40:23;;;;;;;2.50;0.70;;;15.10;87.40;;;;;;4973993;28;20084;-44
2022/04/16 12:42:50;;;;;;;2.88;0.60;;;15.30;86.80;;;;;;4989539;28;20042;-46
2022/04/16 12:45:16;;;;;;;1.10;0.80;;;15.30;90.40;;;;;;4993052;28;20147;-46
2022/04/16 12:47:42;;;;;;;4.63;0.90;;;15.20;87.90;;;;;;4990603;28;20053;-46
2022/04/16 12:50:09;;;;;;;3.40;0.90;;;15.70;86.20;;;;;;4991942;28;20108;-46
2022/04/16 12:52:35;;;;;;;9.07;1.02;;;15.10;85.10;;;;;;4991894;28;20038;-44
2022/04/16 12:55:01;;;;;;;1.58;0.77;;;16.20;85.90;;;;;;4992399;28;20441;-42
2022/04/16 12:57:28;;;;;;;4.75;0.90;;;15.20;85.00;;;;;;4992110;28;20079;-42
2022/04/16 12:59:53;;;;;;;3.90;0.82;;;15.30;86.20;;;;;;4992522;28;20342;-44
2022/04/16 13:02:19;;;;;;;1.45;0.50;;;15.20;84.30;;;;;;4990757;28;20053;-44
2022/04/16 13:04:45;;;;;;;5.50;0.82;;;16.50;87.70;;;;;;4991814;28;20037;-43
2022/04/16 13:07:10;;;;;;;1.60;0.60;;;15.30;86.00;;;;;;4990250;28;20033;-44
2022/04/16 13:09:36;;;;;;;2.38;0.52;;;15.30;85.70;;;;;;4991090;28;20499;-42
2022/04/16 13:12:02;;;;;;;1.45;0.60;;;15.30;83.30;;;;;;4992977;28;20046;-43
2022/04/16 13:14:30;;;;;;;5.97;0.65;;;15.30;84.70;;;;;;4992166;28;20030;-41
2022/04/16 13:16:56;;;;;;;2.58;0.85;;;17.00;84.90;;;;;;4990757;28;20038;-43
2022/04/16 13:19:22;;;;;;;1.70;0.70;;;16.50;84.40;;;;;;4994007;28;20453;-41
2022/04/16 13:21:48;;;;;;;1.95;0.80;;;15.10;83.20;;;;;;4996467;28;20038;-46
2022/04/16 13:24:15;;;;;;;4.10;0.68;;;15.30;84.10;;;;;;4995965;28;20041;-44
2022/04/16 13:26:43;;;;;;;1.55;0.70;;;15.20;85.70;;;;;;4995110;28;20739;-41
2022/04/16 13:29:09;;;;;;;2.00;0.70;;;16.30;84.10;;;;;;4995826;28;20164;-45
2022/04/16 13:31:35;;;;;;;3.10;0.70;;;15.40;82.90;;;;;;4995755;28;20121;-47
2022/04/16 13:34:02;;;;;;;1.80;0.80;;;15.60;83.30;;;;;;4995303;28;20064;-40
2022/04/16 13:36:28;;;;;;;1.38;0.68;;;15.20;83.70;;;;;;4994638;28;20061;-44
2022/04/16 13:38:54;;;;;;;2.03;0.73;;;15.70;85.20;;;;;;4994940;28;20061;-45